sensor_id;sensor_type;location;lat;lon;timestamp;pressure;altitude;pressure_sealevel;temperature;humidity
13709;BME280;54933;51.908;7.730;2023-01-29T00:01:20;102310.44;;;21.43;57.88
13709;BME280;54933;51.908;7.730;2023-01-29T00:03:45;102309.59;;;21.43;57.88
13709;BME280;54933;51.908;7.730;2023-01-29T00:06:11;102294.22;;;21.43;57.72
13709;BME280;54933;51.908;7.730;2023-01-29T00:08:37;102297.75;;;21.44;57.80
13709;BME280;54933;51.908;7.730;2023-01-29T00:11:04;102295.88;;;21.44;57.45
13709;BME280;54933;51.908;7.730;2023-01-29T00:13:30;102289.81;;;21.42;57.75
13709;BME280;54933;51.908;7.730;2023-01-29T00:15:56;102286.94;;;21.44;57.70
13709;BME280;54933;51.908;7.730;2023-01-29T00:18:22;102286.75;;;21.45;57.74
13709;BME280;54933;51.908;7.730;2023-01-29T00:20:48;102279.66;;;21.44;57.50
13709;BME280;54933;51.908;7.730;2023-01-29T00:23:13;102279.66;;;21.44;57.56
13709;BME280;54933;51.908;7.730;2023-01-29T00:25:39;102280.50;;;21.45;57.58
13709;BME280;54933;51.908;7.730;2023-01-29T00:28:05;102275.09;;;21.45;57.65
13709;BME280;54933;51.908;7.730;2023-01-29T00:30:30;102272.22;;;21.46;57.57
13709;BME280;54933;51.908;7.730;2023-01-29T00:32:56;102277.63;;;21.46;57.52
13709;BME280;54933;51.908;7.730;2023-01-29T00:35:21;102282.19;;;21.46;57.68
13709;BME280;54933;51.908;7.730;2023-01-29T00:37:46;102275.91;;;21.45;57.58
13709;BME280;54933;51.908;7.730;2023-01-29T00:40:12;102270.50;;;21.45;57.70
13709;BME280;54933;51.908;7.730;2023-01-29T00:42:37;102280.50;;;21.45;57.50
13709;BME280;54933;51.908;7.730;2023-01-29T00:45:21;102280.34;;;21.46;57.62
13709;BME280;54933;51.908;7.730;2023-01-29T00:47:47;102288.63;;;21.45;57.56
13709;BME280;54933;51.908;7.730;2023-01-29T00:50:12;102284.03;;;21.45;57.58
13709;BME280;54933;51.908;7.730;2023-01-29T00:52:38;102281.34;;;21.45;57.47
13709;BME280;54933;51.908;7.730;2023-01-29T00:55:05;102282.38;;;21.44;57.33
13709;BME280;54933;51.908;7.730;2023-01-29T00:57:32;102287.59;;;21.46;57.26
13709;BME280;54933;51.908;7.730;2023-01-29T00:59:58;102281.34;;;21.45;57.48
13709;BME280;54933;51.908;7.730;2023-01-29T01:02:24;102282.19;;;21.46;57.37
13709;BME280;54933;51.908;7.730;2023-01-29T01:05:10;102280.50;;;21.45;57.65
13709;BME280;54933;51.908;7.730;2023-01-29T01:07:39;102275.91;;;21.45;57.55
13709;BME280;54933;51.908;7.730;2023-01-29T01:10:05;102267.81;;;21.45;57.51
13709;BME280;54933;51.908;7.730;2023-01-29T01:12:56;102259.69;;;21.45;57.55
13709;BME280;54933;51.908;7.730;2023-01-29T01:15:25;102248.06;;;21.45;57.45
13709;BME280;54933;51.908;7.730;2023-01-29T01:17:52;102233.69;;;21.44;57.54
13709;BME280;54933;51.908;7.730;2023-01-29T01:20:18;102238.06;;;21.45;57.30
13709;BME280;54933;51.908;7.730;2023-01-29T01:22:43;102231.84;;;21.45;57.45
13709;BME280;54933;51.908;7.730;2023-01-29T01:25:09;102234.34;;;21.46;57.39
13709;BME280;54933;51.908;7.730;2023-01-29T01:27:34;102231.66;;;21.46;57.55
13709;BME280;54933;51.908;7.730;2023-01-29T01:30:02;102221.03;;;21.45;57.59
13709;BME280;54933;51.908;7.730;2023-01-29T01:32:27;102232.66;;;21.45;57.58
13709;BME280;54933;51.908;7.730;2023-01-29T01:34:52;102230.81;;;21.46;57.43
13709;BME280;54933;51.908;7.730;2023-01-29T01:37:18;102224.53;;;21.45;56.83
13709;BME280;54933;51.908;7.730;2023-01-29T01:39:43;102222.69;;;21.46;57.28
13709;BME280;54933;51.908;7.730;2023-01-29T01:42:14;102222.69;;;21.46;57.26
13709;BME280;54933;51.908;7.730;2023-01-29T01:44:56;102228.94;;;21.46;57.45
13709;BME280;54933;51.908;7.730;2023-01-29T01:47:34;102218.13;;;21.46;57.29
13709;BME280;54933;51.908;7.730;2023-01-29T01:50:06;102221.84;;;21.45;57.47
13709;BME280;54933;51.908;7.730;2023-01-29T01:52:35;102221.84;;;21.45;57.59
13709;BME280;54933;51.908;7.730;2023-01-29T01:55:03;102230.63;;;21.47;57.34
13709;BME280;54933;51.908;7.730;2023-01-29T01:57:30;102221.84;;;21.45;57.46
13709;BME280;54933;51.908;7.730;2023-01-29T01:59:59;102227.25;;;21.45;57.40
13709;BME280;54933;51.908;7.730;2023-01-29T02:02:35;102227.25;;;21.45;57.26
13709;BME280;54933;51.908;7.730;2023-01-29T02:05:19;102227.25;;;21.45;57.44
13709;BME280;54933;51.908;7.730;2023-01-29T02:08:03;102223.72;;;21.45;57.51
13709;BME280;54933;51.908;7.730;2023-01-29T02:10:47;102221.84;;;21.45;57.18
13709;BME280;54933;51.908;7.730;2023-01-29T02:13:14;102232.66;;;21.45;57.33
13709;BME280;54933;51.908;7.730;2023-01-29T02:15:42;102227.25;;;21.45;57.16
13709;BME280;54933;51.908;7.730;2023-01-29T02:18:13;102238.06;;;21.45;57.46
13709;BME280;54933;51.908;7.730;2023-01-29T02:20:41;102246.03;;;21.47;57.30
13709;BME280;54933;51.908;7.730;2023-01-29T02:23:48;102246.03;;;21.47;57.38
13709;BME280;54933;51.908;7.730;2023-01-29T02:26:32;102263.06;;;21.47;57.18
13709;BME280;54933;51.908;7.730;2023-01-29T02:29:20;102262.41;;;21.45;57.30
13709;BME280;54933;51.908;7.730;2023-01-29T02:32:15;102263.06;;;21.47;57.41
13709;BME280;54933;51.908;7.730;2023-01-29T02:40:44;102258.31;;;21.49;57.32
13709;BME280;54933;51.908;7.730;2023-01-29T02:46:14;102266.06;;;21.52;57.19
13709;BME280;54933;51.908;7.730;2023-01-29T02:48:51;102259.66;;;21.53;57.02
13709;BME280;54933;51.908;7.730;2023-01-29T02:51:37;102249.84;;;21.52;57.28
13709;BME280;54933;51.908;7.730;2023-01-29T02:56:51;102252.34;;;21.54;57.18
13709;BME280;54933;51.908;7.730;2023-01-29T02:59:25;102254.88;;;21.55;56.87
13709;BME280;54933;51.908;7.730;2023-01-29T03:01:55;102256.56;;;21.57;57.02
13709;BME280;54933;51.908;7.730;2023-01-29T03:04:29;102257.38;;;21.57;56.86
13709;BME280;54933;51.908;7.730;2023-01-29T03:07:05;102259.91;;;21.58;57.32
13709;BME280;54933;51.908;7.730;2023-01-29T03:09:43;102253.88;;;21.57;56.63
13709;BME280;54933;51.908;7.730;2023-01-29T03:12:18;102256.19;;;21.60;56.50
13709;BME280;54933;51.908;7.730;2023-01-29T03:15:02;102268.03;;;21.58;56.90
13709;BME280;54933;51.908;7.730;2023-01-29T03:17:50;102264.31;;;21.60;56.58
13709;BME280;54933;51.908;7.730;2023-01-29T03:20:22;102265.31;;;21.58;56.73
13709;BME280;54933;51.908;7.730;2023-01-29T03:22:59;102258.06;;;21.59;56.93
13709;BME280;54933;51.908;7.730;2023-01-29T03:25:27;102260.75;;;21.59;56.81
13709;BME280;54933;51.908;7.730;2023-01-29T03:28:15;102251.63;;;21.60;56.98
13709;BME280;54933;51.908;7.730;2023-01-29T03:31:04;102247.41;;;21.58;56.70
13709;BME280;54933;51.908;7.730;2023-01-29T03:33:51;102243.69;;;21.58;56.72
13709;BME280;54933;51.908;7.730;2023-01-29T03:36:28;102246.22;;;21.60;56.77
13709;BME280;54933;51.908;7.730;2023-01-29T03:39:03;102241.81;;;21.59;56.50
13709;BME280;54933;51.908;7.730;2023-01-29T03:41:35;102241.63;;;21.61;56.43
13709;BME280;54933;51.908;7.730;2023-01-29T03:44:16;102239.97;;;21.60;56.20
13709;BME280;54933;51.908;7.730;2023-01-29T03:46:53;102236.22;;;21.61;56.53
13709;BME280;54933;51.908;7.730;2023-01-29T03:51:57;102227.09;;;21.62;56.52
13709;BME280;54933;51.908;7.730;2023-01-29T03:54:34;102220.00;;;21.61;56.59
13709;BME280;54933;51.908;7.730;2023-01-29T03:57:23;102217.28;;;21.61;56.24
13709;BME280;54933;51.908;7.730;2023-01-29T04:00:07;102216.28;;;21.62;56.65
13709;BME280;54933;51.908;7.730;2023-01-29T04:02:50;102218.31;;;21.60;56.54
13709;BME280;54933;51.908;7.730;2023-01-29T04:05:24;102193.97;;;21.60;56.25
13709;BME280;54933;51.908;7.730;2023-01-29T04:08:00;102187.53;;;21.61;56.39
13709;BME280;54933;51.908;7.730;2023-01-29T04:10:28;102185.88;;;21.60;56.66
13709;BME280;54933;51.908;7.730;2023-01-29T04:13:03;102179.41;;;21.61;56.30
13709;BME280;54933;51.908;7.730;2023-01-29T04:15:33;102177.94;;;21.58;56.46
13709;BME280;54933;51.908;7.730;2023-01-29T04:18:00;102173.34;;;21.58;56.38
13709;BME280;54933;51.908;7.730;2023-01-29T04:20:26;102178.59;;;21.60;56.49
13709;BME280;54933;51.908;7.730;2023-01-29T04:22:53;102178.59;;;21.60;56.72
13709;BME280;54933;51.908;7.730;2023-01-29T04:25:21;102175.03;;;21.60;56.46
13709;BME280;54933;51.908;7.730;2023-01-29T04:28:04;102164.22;;;21.60;56.54
13709;BME280;54933;51.908;7.730;2023-01-29T04:30:53;102166.94;;;21.60;56.54
13709;BME280;54933;51.908;7.730;2023-01-29T04:36:25;102162.19;;;21.62;56.26
13709;BME280;54933;51.908;7.730;2023-01-29T04:39:20;102161.34;;;21.61;56.54
13709;BME280;54933;51.908;7.730;2023-01-29T04:41:52;102158.81;;;21.60;56.16
13709;BME280;54933;51.908;7.730;2023-01-29T04:54:35;102133.25;;;21.47;56.94
13709;BME280;54933;51.908;7.730;2023-01-29T04:57:21;102130.53;;;21.47;56.96
13709;BME280;54933;51.908;7.730;2023-01-29T05:00:36;102122.44;;;21.47;56.94
13709;BME280;54933;51.908;7.730;2023-01-29T05:02:41;102123.47;;;21.46;57.02
13709;BME280;54933;51.908;7.730;2023-01-29T05:05:09;102131.59;;;21.46;56.93
13709;BME280;54933;51.908;7.730;2023-01-29T05:07:37;102127.19;;;21.45;57.00
13709;BME280;54933;51.908;7.730;2023-01-29T05:10:06;102122.63;;;21.46;57.04
13709;BME280;54933;51.908;7.730;2023-01-29T05:12:32;102118.91;;;21.47;57.01
13709;BME280;54933;51.908;7.730;2023-01-29T05:15:01;102118.06;;;21.46;57.12
13709;BME280;54933;51.908;7.730;2023-01-29T05:17:27;102127.84;;;21.47;56.94
13709;BME280;54933;51.908;7.730;2023-01-29T05:19:54;102127.03;;;21.47;56.91
13709;BME280;54933;51.908;7.730;2023-01-29T05:22:19;102122.63;;;21.46;56.74
13709;BME280;54933;51.908;7.730;2023-01-29T05:24:47;102129.72;;;21.47;56.99
13709;BME280;54933;51.908;7.730;2023-01-29T05:27:21;102137.00;;;21.46;56.92
13709;BME280;54933;51.908;7.730;2023-01-29T05:30:06;102137.84;;;21.47;57.17
13709;BME280;54933;51.908;7.730;2023-01-29T05:32:32;102138.66;;;21.47;56.89
13709;BME280;54933;51.908;7.730;2023-01-29T05:34:57;102147.81;;;21.46;56.91
13709;BME280;54933;51.908;7.730;2023-01-29T05:37:22;102145.97;;;21.47;57.13
13709;BME280;54933;51.908;7.730;2023-01-29T05:39:48;102154.22;;;21.45;57.04
13709;BME280;54933;51.908;7.730;2023-01-29T05:42:13;102158.63;;;21.46;57.38
13709;BME280;54933;51.908;7.730;2023-01-29T05:44:38;102161.16;;;21.48;57.03
13709;BME280;54933;51.908;7.730;2023-01-29T05:47:04;102160.47;;;21.46;57.10
13709;BME280;54933;51.908;7.730;2023-01-29T05:49:29;102161.34;;;21.46;56.85
13709;BME280;54933;51.908;7.730;2023-01-29T05:51:54;102158.63;;;21.46;56.87
13709;BME280;54933;51.908;7.730;2023-01-29T05:54:20;102147.81;;;21.46;56.68
13709;BME280;54933;51.908;7.730;2023-01-29T05:56:45;102155.91;;;21.46;56.83
13709;BME280;54933;51.908;7.730;2023-01-29T05:59:10;102158.63;;;21.46;56.88
13709;BME280;54933;51.908;7.730;2023-01-29T06:01:36;102162.34;;;21.45;57.07
13709;BME280;54933;51.908;7.730;2023-01-29T06:04:01;102164.88;;;21.47;57.37
13709;BME280;54933;51.908;7.730;2023-01-29T06:06:26;102167.75;;;21.45;56.96
13709;BME280;54933;51.908;7.730;2023-01-29T06:08:51;102174.00;;;21.46;56.93
13709;BME280;54933;51.908;7.730;2023-01-29T06:11:17;102161.53;;;21.45;57.17
13709;BME280;54933;51.908;7.730;2023-01-29T06:13:43;102154.41;;;21.44;57.19
13709;BME280;54933;51.908;7.730;2023-01-29T06:16:09;102160.66;;;21.44;57.35
13709;BME280;54933;51.908;7.730;2023-01-29T06:18:36;102155.25;;;21.44;57.06
13709;BME280;54933;51.908;7.730;2023-01-29T06:21:03;102166.94;;;21.45;57.31
13709;BME280;54933;51.908;7.730;2023-01-29T06:23:29;102154.41;;;21.44;57.13
13709;BME280;54933;51.908;7.730;2023-01-29T06:26:02;102157.97;;;21.44;57.24
13709;BME280;54933;51.908;7.730;2023-01-29T06:28:28;102155.25;;;21.44;57.21
13709;BME280;54933;51.908;7.730;2023-01-29T06:30:58;102151.72;;;21.44;57.18
13709;BME280;54933;51.908;7.730;2023-01-29T06:33:25;102171.50;;;21.44;57.14
13709;BME280;54933;51.908;7.730;2023-01-29T06:35:57;102171.50;;;21.44;57.44
13709;BME280;54933;51.908;7.730;2023-01-29T06:38:23;102161.72;;;21.43;57.15
13709;BME280;54933;51.908;7.730;2023-01-29T06:40:49;102167.94;;;21.44;57.42
13709;BME280;54933;51.908;7.730;2023-01-29T06:43:14;102176.91;;;21.44;57.37
13709;BME280;54933;51.908;7.730;2023-01-29T06:45:52;102171.50;;;21.44;57.10
13709;BME280;54933;51.908;7.730;2023-01-29T06:48:18;102176.91;;;21.44;57.39
13709;BME280;54933;51.908;7.730;2023-01-29T06:50:44;102182.31;;;21.44;57.27
13709;BME280;54933;51.908;7.730;2023-01-29T06:53:10;102154.41;;;21.44;57.38
13709;BME280;54933;51.908;7.730;2023-01-29T06:55:35;102153.59;;;21.43;57.54
13709;BME280;54933;51.908;7.730;2023-01-29T06:58:08;102165.22;;;21.44;57.28
13709;BME280;54933;51.908;7.730;2023-01-29T07:00:34;102166.94;;;21.45;57.49
13709;BME280;54933;51.908;7.730;2023-01-29T07:03:00;102166.09;;;21.44;57.17
13709;BME280;54933;51.908;7.730;2023-01-29T07:05:26;102156.38;;;21.35;57.36
13709;BME280;54933;51.908;7.730;2023-01-29T07:07:51;102154.00;;;21.18;56.84
13709;BME280;54933;51.908;7.730;2023-01-29T07:10:16;102150.59;;;21.09;57.33
13709;BME280;54933;51.908;7.730;2023-01-29T07:12:42;102157.66;;;21.10;57.47
13709;BME280;54933;51.908;7.730;2023-01-29T07:15:07;102152.31;;;21.02;57.51
13709;BME280;54933;51.908;7.730;2023-01-29T07:17:33;102165.84;;;21.02;57.67
13709;BME280;54933;51.908;7.730;2023-01-29T07:19:58;102155.03;;;21.02;58.36
13709;BME280;54933;51.908;7.730;2023-01-29T07:22:23;102154.19;;;21.02;57.99
13709;BME280;54933;51.908;7.730;2023-01-29T07:24:49;102167.13;;;21.06;58.05
13709;BME280;54933;51.908;7.730;2023-01-29T07:27:14;102161.38;;;21.09;58.29
13709;BME280;54933;51.908;7.730;2023-01-29T07:29:39;102157.28;;;21.13;58.15
13709;BME280;54933;51.908;7.730;2023-01-29T07:32:04;102151.88;;;21.13;58.29
13709;BME280;54933;51.908;7.730;2023-01-29T07:34:30;102159.09;;;21.21;58.28
13709;BME280;54933;51.908;7.730;2023-01-29T07:36:55;102162.03;;;21.26;58.10
13709;BME280;54933;51.908;7.730;2023-01-29T07:39:21;102158.34;;;21.27;58.17
13709;BME280;54933;51.908;7.730;2023-01-29T07:41:46;102171.47;;;21.30;57.96
13709;BME280;54933;51.908;7.730;2023-01-29T07:44:12;102163.84;;;21.33;57.72
13709;BME280;54933;51.908;7.730;2023-01-29T07:46:37;102167.22;;;21.35;57.98
13709;BME280;54933;51.908;7.730;2023-01-29T07:49:02;102165.50;;;21.34;57.92
13709;BME280;54933;51.908;7.730;2023-01-29T07:51:27;102155.16;;;21.38;57.83
13709;BME280;54933;51.908;7.730;2023-01-29T07:53:53;102148.72;;;21.39;57.74
13709;BME280;54933;51.908;7.730;2023-01-29T07:56:18;102136.06;;;21.39;57.86
13709;BME280;54933;51.908;7.730;2023-01-29T07:58:43;102145.00;;;21.40;57.75
13709;BME280;54933;51.908;7.730;2023-01-29T08:01:09;102140.25;;;21.42;58.00
13709;BME280;54933;51.908;7.730;2023-01-29T08:03:35;102141.47;;;21.39;57.74
13709;BME280;54933;51.908;7.730;2023-01-29T08:06:02;102144.25;;;21.31;57.80
13709;BME280;54933;51.908;7.730;2023-01-29T08:08:27;102143.78;;;21.28;57.71
13709;BME280;54933;51.908;7.730;2023-01-29T08:10:53;102146.66;;;21.26;57.93
13709;BME280;54933;51.908;7.730;2023-01-29T08:13:18;102145.19;;;21.09;57.83
13709;BME280;54933;51.908;7.730;2023-01-29T08:15:44;102140.06;;;21.14;58.24
13709;BME280;54933;51.908;7.730;2023-01-29T08:18:10;102129.50;;;21.19;58.33
13709;BME280;54933;51.908;7.730;2023-01-29T08:20:35;102122.72;;;21.23;58.20
13709;BME280;54933;51.908;7.730;2023-01-29T08:23:04;102115.56;;;21.30;58.36
13709;BME280;54933;51.908;7.730;2023-01-29T08:25:30;102104.06;;;21.28;58.38
13709;BME280;54933;51.908;7.730;2023-01-29T08:27:56;102102.66;;;21.32;58.10
13709;BME280;54933;51.908;7.730;2023-01-29T08:30:27;102103.97;;;21.36;58.46
13709;BME280;54933;51.908;7.730;2023-01-29T08:32:52;102105.66;;;21.37;58.12
13709;BME280;54933;51.908;7.730;2023-01-29T08:35:18;102109.00;;;21.39;58.38
13709;BME280;54933;51.908;7.730;2023-01-29T08:37:43;102098.00;;;21.41;58.41
13709;BME280;54933;51.908;7.730;2023-01-29T08:40:09;102093.53;;;21.33;58.28
13709;BME280;54933;51.908;7.730;2023-01-29T08:42:36;102085.16;;;21.28;58.18
13709;BME280;54933;51.908;7.730;2023-01-29T08:45:01;102082.44;;;21.28;58.05
13709;BME280;54933;51.908;7.730;2023-01-29T08:47:27;102078.22;;;21.11;57.90
13709;BME280;54933;51.908;7.730;2023-01-29T08:49:52;102084.75;;;21.02;58.20
13709;BME280;54933;51.908;7.730;2023-01-29T08:52:17;102073.94;;;21.02;58.33
13709;BME280;54933;51.908;7.730;2023-01-29T08:54:42;102079.72;;;20.99;58.46
13709;BME280;54933;51.908;7.730;2023-01-29T08:57:08;102090.53;;;20.99;58.73
13709;BME280;54933;51.908;7.730;2023-01-29T08:59:33;102097.25;;;21.03;58.81
13709;BME280;54933;51.908;7.730;2023-01-29T09:01:59;102093.16;;;21.07;58.81
13709;BME280;54933;51.908;7.730;2023-01-29T09:04:25;102085.72;;;21.09;58.76
13709;BME280;54933;51.908;7.730;2023-01-29T09:06:50;102078.91;;;21.13;58.71
13709;BME280;54933;51.908;7.730;2023-01-29T09:09:15;102078.72;;;21.15;58.87
13709;BME280;54933;51.908;7.730;2023-01-29T09:11:40;102076.66;;;21.17;58.67
13709;BME280;54933;51.908;7.730;2023-01-29T09:14:06;102073.41;;;21.21;58.60
13709;BME280;54933;51.908;7.730;2023-01-29T09:16:31;102078.69;;;21.29;58.71
13709;BME280;54933;51.908;7.730;2023-01-29T09:18:56;102076.66;;;21.31;58.39
13709;BME280;54933;51.908;7.730;2023-01-29T09:21:21;102068.81;;;21.36;58.58
13709;BME280;54933;51.908;7.730;2023-01-29T09:23:47;102067.59;;;21.24;58.31
13709;BME280;54933;51.908;7.730;2023-01-29T09:26:12;102060.44;;;21.02;58.30
13709;BME280;54933;51.908;7.730;2023-01-29T09:28:37;102059.19;;;20.90;58.13
13709;BME280;54933;51.908;7.730;2023-01-29T09:31:03;102063.28;;;20.86;58.34
13709;BME280;54933;51.908;7.730;2023-01-29T09:33:28;102069.69;;;20.85;58.61
13709;BME280;54933;51.908;7.730;2023-01-29T09:35:55;102073.63;;;20.83;58.47
13709;BME280;54933;51.908;7.730;2023-01-29T09:38:20;102078.16;;;20.82;58.90
13709;BME280;54933;51.908;7.730;2023-01-29T09:43:41;102082.47;;;20.77;58.04
13709;BME280;54933;51.908;7.730;2023-01-29T09:46:45;102083.66;;;20.74;58.25
13709;BME280;54933;51.908;7.730;2023-01-29T09:49:23;102082.91;;;20.80;58.80
13709;BME280;54933;51.908;7.730;2023-01-29T09:54:47;102084.16;;;20.92;58.87
13709;BME280;54933;51.908;7.730;2023-01-29T09:57:19;102098.00;;;20.97;58.94
13709;BME280;54933;51.908;7.730;2023-01-29T09:59:47;102095.56;;;21.02;58.98
13709;BME280;54933;51.908;7.730;2023-01-29T10:02:34;102086.44;;;21.03;58.77
13709;BME280;54933;51.908;7.730;2023-01-29T10:05:15;102082.50;;;20.91;58.74
13709;BME280;54933;51.908;7.730;2023-01-29T10:10:35;102074.84;;;20.95;58.84
13709;BME280;54933;51.908;7.730;2023-01-29T10:13:26;102036.72;;;19.93;55.17
13709;BME280;54933;51.908;7.730;2023-01-29T10:16:16;102053.63;;;18.93;50.81
13709;BME280;54933;51.908;7.730;2023-01-29T10:21:32;102065.44;;;19.78;52.31
13709;BME280;54933;51.908;7.730;2023-01-29T10:24:30;102054.91;;;19.91;53.51
13709;BME280;54933;51.908;7.730;2023-01-29T10:26:59;102038.50;;;20.00;54.19
13709;BME280;54933;51.908;7.730;2023-01-29T10:29:26;102032.91;;;20.02;54.57
13709;BME280;54933;51.908;7.730;2023-01-29T10:31:56;102034.91;;;20.08;54.66
13709;BME280;54933;51.908;7.730;2023-01-29T10:34:32;102032.53;;;20.13;54.80
13709;BME280;54933;51.908;7.730;2023-01-29T10:37:12;102037.22;;;20.19;55.22
13709;BME280;54933;51.908;7.730;2023-01-29T10:39:39;102024.69;;;20.26;55.38
13709;BME280;54933;51.908;7.730;2023-01-29T10:50:10;102030.63;;;20.44;55.73
13709;BME280;54933;51.908;7.730;2023-01-29T10:53:19;102029.88;;;20.50;55.82
13709;BME280;54933;51.908;7.730;2023-01-29T10:56:03;102028.75;;;20.59;55.78
13709;BME280;54933;51.908;7.730;2023-01-29T10:58:45;102018.25;;;20.64;55.42
13709;BME280;54933;51.908;7.730;2023-01-29T11:01:13;102014.25;;;20.60;55.77
13709;BME280;54933;51.908;7.730;2023-01-29T11:03:38;102009.50;;;20.62;56.30
13709;BME280;54933;51.908;7.730;2023-01-29T11:06:12;102003.44;;;20.60;56.40
13709;BME280;54933;51.908;7.730;2023-01-29T11:11:43;101970.47;;;20.50;55.70
13709;BME280;54933;51.908;7.730;2023-01-29T11:14:36;101977.63;;;20.43;54.81
13709;BME280;54933;51.908;7.730;2023-01-29T11:17:03;101980.06;;;20.53;55.65
13709;BME280;54933;51.908;7.730;2023-01-29T11:19:43;101974.41;;;20.62;56.29
13709;BME280;54933;51.908;7.730;2023-01-29T11:22:14;101966.84;;;20.72;56.77
13709;BME280;54933;51.908;7.730;2023-01-29T11:24:40;101967.50;;;20.74;56.48
13709;BME280;54933;51.908;7.730;2023-01-29T11:27:22;101965.56;;;20.83;56.94
13709;BME280;54933;51.908;7.730;2023-01-29T11:29:51;101960.63;;;20.86;56.82
13709;BME280;54933;51.908;7.730;2023-01-29T11:37:33;101964.19;;;21.01;57.00
13709;BME280;54933;51.908;7.730;2023-01-29T11:39:59;101959.41;;;21.03;57.05
13709;BME280;54933;51.908;7.730;2023-01-29T11:42:29;101954.47;;;21.07;57.04
13709;BME280;54933;51.908;7.730;2023-01-29T11:44:54;101945.78;;;21.11;56.82
13709;BME280;54933;51.908;7.730;2023-01-29T11:47:28;101948.16;;;21.14;57.24
13709;BME280;54933;51.908;7.730;2023-01-29T11:49:56;101939.00;;;21.15;56.94
13709;BME280;54933;51.908;7.730;2023-01-29T11:52:24;101921.56;;;21.18;56.91
13709;BME280;54933;51.908;7.730;2023-01-29T11:54:58;101900.09;;;20.52;53.42
13709;BME280;54933;51.908;7.730;2023-01-29T11:57:34;101911.44;;;20.76;53.11
13709;BME280;54933;51.908;7.730;2023-01-29T12:00:27;101921.69;;;20.66;54.01
13709;BME280;54933;51.908;7.730;2023-01-29T12:02:54;101917.94;;;20.67;55.06
13709;BME280;54933;51.908;7.730;2023-01-29T12:05:23;101909.22;;;20.65;55.63
13709;BME280;54933;51.908;7.730;2023-01-29T12:07:51;101903.06;;;20.71;56.32
13709;BME280;54933;51.908;7.730;2023-01-29T12:10:33;101901.00;;;20.73;56.55
13709;BME280;54933;51.908;7.730;2023-01-29T12:13:10;101904.00;;;20.78;57.07
13709;BME280;54933;51.908;7.730;2023-01-29T12:15:46;101890.09;;;20.81;57.14
13709;BME280;54933;51.908;7.730;2023-01-29T12:18:28;101891.19;;;20.87;57.16
13709;BME280;54933;51.908;7.730;2023-01-29T12:21:48;101885.88;;;20.93;57.37
13709;BME280;54933;51.908;7.730;2023-01-29T12:26:44;101871.34;;;20.94;57.53
13709;BME280;54933;51.908;7.730;2023-01-29T12:29:23;101861.41;;;20.95;57.62
13709;BME280;54933;51.908;7.730;2023-01-29T12:35:13;101861.50;;;21.01;57.67
13709;BME280;54933;51.908;7.730;2023-01-29T12:40:50;101855.34;;;21.07;57.72
13709;BME280;54933;51.908;7.730;2023-01-29T12:43:27;101851.97;;;21.05;57.78
13709;BME280;54933;51.908;7.730;2023-01-29T12:45:55;101849.47;;;20.89;57.71
13709;BME280;54933;51.908;7.730;2023-01-29T12:48:26;101837.94;;;20.81;57.85
13709;BME280;54933;51.908;7.730;2023-01-29T12:50:55;101837.09;;;20.80;58.25
13709;BME280;54933;51.908;7.730;2023-01-29T12:56:31;101838.22;;;20.71;58.29
13709;BME280;54933;51.908;7.730;2023-01-29T12:59:00;101829.47;;;20.69;58.20
13709;BME280;54933;51.908;7.730;2023-01-29T13:01:43;101823.69;;;20.72;58.49
13709;BME280;54933;51.908;7.730;2023-01-29T13:04:17;101822.88;;;20.72;58.64
13709;BME280;54933;51.908;7.730;2023-01-29T13:06:48;101820.38;;;20.70;58.54
13709;BME280;54933;51.908;7.730;2023-01-29T13:09:20;101813.72;;;20.73;58.82
13709;BME280;54933;51.908;7.730;2023-01-29T13:11:58;101810.47;;;20.77;58.91
13709;BME280;54933;51.908;7.730;2023-01-29T13:17:54;101794.72;;;20.81;58.92
13709;BME280;54933;51.908;7.730;2023-01-29T13:20:04;101788.38;;;20.74;58.72
13709;BME280;54933;51.908;7.730;2023-01-29T13:22:36;101782.63;;;20.77;59.01
13709;BME280;54933;51.908;7.730;2023-01-29T13:25:03;101785.53;;;20.75;58.96
13709;BME280;54933;51.908;7.730;2023-01-29T13:27:30;101785.94;;;20.79;58.96
13709;BME280;54933;51.908;7.730;2023-01-29T13:29:56;101785.22;;;20.85;59.19
13709;BME280;54933;51.908;7.730;2023-01-29T13:32:30;101776.72;;;20.88;58.98
13709;BME280;54933;51.908;7.730;2023-01-29T13:34:59;101779.88;;;20.91;59.16
13709;BME280;54933;51.908;7.730;2023-01-29T13:37:39;101777.09;;;20.99;59.13
13709;BME280;54933;51.908;7.730;2023-01-29T13:40:17;101768.97;;;20.99;59.03
13709;BME280;54933;51.908;7.730;2023-01-29T13:42:46;101780.88;;;20.90;58.75
13709;BME280;54933;51.908;7.730;2023-01-29T13:45:29;101767.75;;;20.87;58.57
13709;BME280;54933;51.908;7.730;2023-01-29T13:48:08;101767.84;;;20.94;58.89
13709;BME280;54933;51.908;7.730;2023-01-29T13:50:37;101764.13;;;20.95;59.13
13709;BME280;54933;51.908;7.730;2023-01-29T13:53:05;101766.63;;;20.96;59.06
13709;BME280;54933;51.908;7.730;2023-01-29T13:55:34;101770.84;;;20.99;59.16
13709;BME280;54933;51.908;7.730;2023-01-29T13:58:04;101762.16;;;21.03;59.10
13709;BME280;54933;51.908;7.730;2023-01-29T14:10:23;101750.41;;;20.96;59.04
13709;BME280;54933;51.908;7.730;2023-01-29T14:18:02;101748.97;;;20.79;59.12
13709;BME280;54933;51.908;7.730;2023-01-29T14:23:00;101743.31;;;20.74;59.44
13709;BME280;54933;51.908;7.730;2023-01-29T14:25:30;101736.31;;;20.80;59.34
13709;BME280;54933;51.908;7.730;2023-01-29T14:27:58;101742.69;;;20.93;59.56
13709;BME280;54933;51.908;7.730;2023-01-29T14:30:25;101711.34;;;19.92;55.07
13709;BME280;54933;51.908;7.730;2023-01-29T14:32:51;101723.59;;;20.09;53.52
13709;BME280;54933;51.908;7.730;2023-01-29T14:35:22;101737.28;;;20.22;53.73
13709;BME280;54933;51.908;7.730;2023-01-29T14:37:53;101733.63;;;20.44;54.56